Time;durP1;ratioP1;P1;durP2;ratioP2;P2;SDS_P1;SDS_P2;PMS_P1;PMS_P2;Temp;Humidity;BMP_temperature;BMP_pressure;BME280_temperature;BME280_humidity;BME280_pressure;Samples;Min_cycle;Max_cycle;Signal;HPM_P1;HPM_P2
2022/05/08 00:01:47;;;;;;;8.60;3.05;;;7.40;80.80;;;;;;5038179;28;20045;-43
2022/05/08 00:04:17;;;;;;;12.20;2.47;;;7.40;81.00;;;;;;5033659;28;20036;-46
2022/05/08 00:06:44;;;;;;;11.50;3.13;;;7.30;81.00;;;;;;5051576;28;20051;-44
2022/05/08 00:09:11;;;;;;;9.02;3.05;;;7.30;81.10;;;;;;5050281;28;20131;-44
2022/05/08 00:11:38;;;;;;;9.05;2.60;;;7.30;81.00;;;;;;5030807;28;20068;-47
2022/05/08 00:14:04;;;;;;;11.38;3.00;;;7.30;80.90;;;;;;5039343;28;20133;-44
2022/05/08 00:16:31;;;;;;;8.63;3.28;;;7.30;80.80;;;;;;5043789;28;20454;-44
2022/05/08 00:18:58;;;;;;;11.10;2.83;;;7.30;80.90;;;;;;5035849;28;20458;-45
2022/05/08 00:21:25;;;;;;;13.18;4.40;;;7.30;81.00;;;;;;5035077;28;20473;-44
2022/05/08 00:23:53;;;;;;;16.42;3.35;;;7.30;81.10;;;;;;5048429;28;20120;-44
2022/05/08 00:26:20;;;;;;;12.80;3.88;;;7.40;81.30;;;;;;5051492;28;20029;-44
2022/05/08 00:28:47;;;;;;;13.13;4.00;;;7.40;81.00;;;;;;5049681;28;20095;-44
2022/05/08 00:31:14;;;;;;;12.65;4.03;;;7.40;81.00;;;;;;5033681;28;20061;-45
2022/05/08 00:33:42;;;;;;;11.70;2.90;;;7.40;81.00;;;;;;5052339;28;20060;-46
2022/05/08 00:36:09;;;;;;;13.15;3.45;;;7.40;80.90;;;;;;5049305;28;20029;-44
2022/05/08 00:38:36;;;;;;;11.93;3.10;;;7.40;81.00;;;;;;5034029;28;20021;-45
2022/05/08 00:41:06;;;;;;;10.40;2.88;;;7.30;80.80;;;;;;5051052;28;20508;-45
2022/05/08 00:43:34;;;;;;;9.00;2.83;;;7.30;80.80;;;;;;5051350;28;20742;-45
2022/05/08 00:46:09;;;;;;;12.32;2.90;;;7.30;80.70;;;;;;5051343;28;20071;-48
2022/05/08 00:48:37;;;;;;;16.05;3.13;;;7.40;81.00;;;;;;5050310;28;20048;-47
2022/05/08 00:51:06;;;;;;;13.55;3.30;;;7.40;80.80;;;;;;5033842;28;20064;-49
2022/05/08 00:53:36;;;;;;;12.73;2.83;;;7.50;80.80;;;;;;5032214;28;20344;-43
2022/05/08 00:56:05;;;;;;;;;;;7.50;80.70;;;;;;5034790;28;20099;-45
2022/05/08 00:58:36;;;;;;;9.05;3.83;;;7.50;80.80;;;;;;5036023;28;19919;-45
2022/05/08 01:01:03;;;;;;;7.60;2.42;;;7.60;80.90;;;;;;5039070;28;20021;-44
2022/05/08 01:03:33;;;;;;;10.70;2.58;;;7.50;80.90;;;;;;5035163;28;20418;-47
2022/05/08 01:06:06;;;;;;;14.23;3.05;;;7.50;80.80;;;;;;5035375;28;20034;-46
2022/05/08 01:08:37;;;;;;;9.00;2.47;;;7.50;80.40;;;;;;5035051;28;20493;-44
2022/05/08 01:11:05;;;;;;;6.25;2.17;;;7.50;79.60;;;;;;5035048;28;20041;-46
2022/05/08 01:13:33;;;;;;;8.57;2.63;;;7.60;79.30;;;;;;5035512;28;20453;-45
2022/05/08 01:16:00;;;;;;;11.60;2.58;;;7.60;79.00;;;;;;5034943;28;20320;-46
2022/05/08 01:18:28;;;;;;;7.47;2.00;;;7.60;79.00;;;;;;5035021;28;20026;-44
2022/05/08 01:20:55;;;;;;;11.68;3.05;;;7.60;79.00;;;;;;5034960;28;20378;-45
2022/05/08 01:23:25;;;;;;;9.88;2.92;;;7.50;79.10;;;;;;5034180;28;20443;-44
2022/05/08 01:25:53;;;;;;;8.13;2.22;;;7.50;79.10;;;;;;5035098;28;20056;-44
2022/05/08 01:28:21;;;;;;;10.75;2.42;;;7.50;79.20;;;;;;5032283;28;20660;-46
2022/05/08 01:30:52;;;;;;;7.35;2.28;;;7.50;79.20;;;;;;5035386;28;20339;-44
2022/05/08 01:33:20;;;;;;;14.90;2.53;;;7.50;79.40;;;;;;5034499;28;20029;-45
2022/05/08 01:35:49;;;;;;;11.82;2.45;;;7.50;79.60;;;;;;5034155;28;20041;-44
2022/05/08 01:38:17;;;;;;;6.75;3.08;;;7.50;79.70;;;;;;5034239;28;20091;-46
2022/05/08 01:40:44;;;;;;;9.95;2.42;;;7.40;79.90;;;;;;5034029;28;20104;-46
2022/05/08 01:43:12;;;;;;;5.35;1.60;;;7.40;79.80;;;;;;5034648;28;20029;-44
2022/05/08 01:45:39;;;;;;;10.45;2.45;;;7.40;80.00;;;;;;5034467;28;20056;-44
2022/05/08 01:48:23;;;;;;;9.50;2.35;;;7.40;79.90;;;;;;5034834;28;20448;-44
2022/05/08 01:50:57;;;;;;;10.05;2.10;;;7.30;80.00;;;;;;5031250;28;20626;-45
2022/05/08 01:53:28;;;;;;;10.52;2.60;;;7.30;79.90;;;;;;5037984;28;20061;-46
2022/05/08 01:55:56;;;;;;;14.88;3.40;;;7.20;80.00;;;;;;5035947;28;20052;-44
2022/05/08 01:58:27;;;;;;;6.72;1.80;;;7.20;80.00;;;;;;5028970;28;20022;-45
2022/05/08 02:00:57;;;;;;;7.80;2.00;;;7.20;80.30;;;;;;5033101;28;20446;-44
2022/05/08 02:03:24;;;;;;;14.65;2.70;;;7.10;80.30;;;;;;5052558;28;20032;-44
2022/05/08 02:05:52;;;;;;;9.50;2.30;;;7.10;80.60;;;;;;5021640;28;20045;-45
2022/05/08 02:08:19;;;;;;;13.30;2.53;;;7.00;80.50;;;;;;5053178;28;20133;-45
2022/05/08 02:10:46;;;;;;;9.15;2.25;;;6.90;80.70;;;;;;5034588;28;20037;-45
2022/05/08 02:13:13;;;;;;;12.25;2.25;;;6.90;80.70;;;;;;5054515;28;20120;-45
2022/05/08 02:15:40;;;;;;;11.18;2.97;;;6.90;80.60;;;;;;5052626;28;20103;-45
2022/05/08 02:18:11;;;;;;;11.95;2.42;;;6.90;80.60;;;;;;5036565;28;20756;-44
2022/05/08 02:20:41;;;;;;;11.63;2.67;;;6.90;80.70;;;;;;5052070;28;20025;-47
2022/05/08 02:23:11;;;;;;;20.33;3.58;;;6.80;80.40;;;;;;5054277;28;20090;-44
2022/05/08 02:25:38;;;;;;;7.85;2.00;;;6.80;80.40;;;;;;5051345;28;20043;-46
2022/05/08 02:28:05;;;;;;;8.75;2.15;;;6.70;80.50;;;;;;5054147;28;20033;-44
2022/05/08 02:30:32;;;;;;;8.13;2.17;;;6.70;80.60;;;;;;5051082;28;20111;-44
2022/05/08 02:33:00;;;;;;;12.15;2.40;;;6.70;80.70;;;;;;5052668;28;20458;-44
2022/05/08 02:35:28;;;;;;;8.63;2.22;;;6.70;80.70;;;;;;5050600;28;20039;-45
2022/05/08 02:37:56;;;;;;;5.45;2.22;;;6.60;80.60;;;;;;5053012;28;20036;-45
2022/05/08 02:40:24;;;;;;;8.10;2.65;;;6.70;81.10;;;;;;5035181;28;20039;-44
2022/05/08 02:42:52;;;;;;;16.50;2.40;;;6.70;80.70;;;;;;5049647;28;20409;-44
2022/05/08 02:45:19;;;;;;;9.23;2.88;;;6.60;81.10;;;;;;5046967;28;20139;-45
2022/05/08 02:47:49;;;;;;;8.88;1.90;;;6.60;80.80;;;;;;5051810;28;20017;-45
2022/05/08 02:50:15;;;;;;;;;;;6.60;81.00;;;;;;5053404;28;20107;-47
2022/05/08 02:52:45;;;;;;;10.63;2.28;;;6.60;81.00;;;;;;5052023;28;19931;-45
2022/05/08 03:00:45;;;;;;;13.85;2.40;;;6.60;81.30;;;;;;5049322;28;20028;-46
2022/05/08 03:03:12;;;;;;;7.88;2.42;;;6.60;81.10;;;;;;5034106;28;20029;-47
2022/05/08 03:05:41;;;;;;;11.63;2.30;;;6.50;81.30;;;;;;5049729;28;20045;-46
2022/05/08 03:08:08;;;;;;;13.88;2.40;;;6.50;81.40;;;;;;5067179;28;20461;-46
2022/05/08 03:13:20;;;;;;;11.20;3.47;;;6.60;81.30;;;;;;5051141;28;20063;-44
2022/05/08 03:15:47;;;;;;;14.63;2.55;;;6.50;81.40;;;;;;5031421;28;20094;-45
2022/05/08 03:18:14;;;;;;;12.18;2.78;;;6.50;81.30;;;;;;5051618;28;20021;-45
2022/05/08 03:20:41;;;;;;;11.88;3.22;;;6.50;81.50;;;;;;5045669;28;20021;-44
2022/05/08 03:23:08;;;;;;;10.85;4.20;;;6.50;81.50;;;;;;5045724;28;20074;-45
2022/05/08 03:25:38;;;;;;;9.93;2.40;;;6.50;81.60;;;;;;5039776;28;20044;-44
2022/05/08 03:28:10;;;;;;;16.40;5.15;;;6.50;81.60;;;;;;5038661;28;20039;-44
2022/05/08 03:30:37;;;;;;;6.35;2.17;;;6.40;81.60;;;;;;5049209;28;20123;-45
2022/05/08 03:33:06;;;;;;;9.70;2.10;;;6.40;81.50;;;;;;5053149;28;20099;-45
2022/05/08 03:35:33;;;;;;;12.10;2.53;;;6.40;81.60;;;;;;5050224;28;20025;-46
2022/05/08 03:38:00;;;;;;;10.93;2.42;;;6.40;81.60;;;;;;5032837;28;20361;-45
2022/05/08 03:40:29;;;;;;;7.15;2.03;;;6.40;81.90;;;;;;5051086;28;20474;-46
2022/05/08 03:42:56;;;;;;;9.87;1.93;;;6.40;81.80;;;;;;5035318;28;20044;-44
2022/05/08 03:45:22;;;;;;;8.40;2.45;;;6.40;81.70;;;;;;5033596;28;20048;-47
2022/05/08 03:47:56;;;;;;;15.13;2.70;;;6.40;81.80;;;;;;5052635;28;20369;-47
2022/05/08 03:50:23;;;;;;;26.20;4.60;;;6.40;81.70;;;;;;5048968;28;20107;-45
2022/05/08 03:52:49;;;;;;;12.13;2.35;;;6.40;81.60;;;;;;5044146;28;20029;-43
2022/05/08 03:55:20;;;;;;;13.35;2.65;;;6.40;81.70;;;;;;5048057;28;20478;-44
2022/05/08 03:57:47;;;;;;;6.43;2.33;;;6.40;82.20;;;;;;5011525;28;20037;-44
2022/05/08 04:00:15;;;;;;;7.75;1.92;;;6.40;82.00;;;;;;5015498;28;20049;-49
2022/05/08 04:02:42;;;;;;;7.57;1.70;;;6.40;82.10;;;;;;5044132;28;20084;-44
2022/05/08 04:05:11;;;;;;;9.90;2.85;;;6.40;81.90;;;;;;5028054;28;20030;-45
2022/05/08 04:07:38;;;;;;;6.85;2.30;;;6.40;82.10;;;;;;5013076;28;20100;-47
2022/05/08 04:10:07;;;;;;;8.27;1.83;;;6.50;82.10;;;;;;5012473;28;20487;-43
2022/05/08 04:12:33;;;;;;;8.93;2.80;;;6.60;82.00;;;;;;5012565;28;20065;-45
2022/05/08 04:15:02;;;;;;;11.60;3.13;;;6.60;81.80;;;;;;5012188;28;20128;-44
2022/05/08 04:17:29;;;;;;;12.93;2.47;;;6.70;82.10;;;;;;5012376;28;20359;-44
2022/05/08 04:19:56;;;;;;;8.98;3.00;;;6.70;81.90;;;;;;5012577;28;20101;-46
2022/05/08 04:25:10;;;;;;;12.13;2.92;;;6.70;81.70;;;;;;5012752;28;20382;-45
2022/05/08 04:27:37;;;;;;;9.80;2.30;;;6.70;81.50;;;;;;5012367;28;20033;-45
2022/05/08 04:30:07;;;;;;;12.27;2.15;;;6.80;81.70;;;;;;5014698;28;20018;-44
2022/05/08 04:32:32;;;;;;;;;;;6.80;81.60;;;;;;5015851;28;20030;-45
2022/05/08 04:34:59;;;;;;;11.55;2.83;;;6.90;81.50;;;;;;5015423;28;19913;-48
2022/05/08 04:37:25;;;;;;;16.63;2.40;;;6.90;81.50;;;;;;5030750;28;20022;-46
2022/05/08 04:39:51;;;;;;;15.60;2.90;;;7.10;81.60;;;;;;5015673;28;20129;-50
2022/05/08 04:42:18;;;;;;;10.75;2.22;;;7.10;81.40;;;;;;5015029;28;20105;-44
2022/05/08 04:44:44;;;;;;;16.25;3.67;;;7.10;81.60;;;;;;5014135;28;20022;-45
2022/05/08 04:47:09;;;;;;;11.88;2.45;;;7.10;81.60;;;;;;5015426;28;20030;-43
2022/05/08 04:49:38;;;;;;;12.13;2.80;;;7.20;81.70;;;;;;5015093;28;20057;-48
2022/05/08 04:52:04;;;;;;;16.30;3.08;;;7.30;81.70;;;;;;5015488;28;20045;-45
2022/05/08 04:54:35;;;;;;;10.50;2.60;;;7.30;81.40;;;;;;5040268;28;20045;-45
2022/05/08 04:57:02;;;;;;;10.35;3.58;;;7.40;81.30;;;;;;5019572;28;20026;-46
2022/05/08 04:59:33;;;;;;;9.43;2.55;;;7.50;81.10;;;;;;5047365;28;20045;-43
2022/05/08 05:02:03;;;;;;;15.35;4.22;;;7.80;81.00;;;;;;5021144;28;20112;-44
2022/05/08 05:04:30;;;;;;;12.10;2.55;;;7.90;80.30;;;;;;5038794;28;20029;-46
2022/05/08 05:06:59;;;;;;;11.82;2.35;;;8.20;79.90;;;;;;5051131;28;20072;-45
2022/05/08 05:09:25;;;;;;;16.67;3.33;;;8.30;79.50;;;;;;5048054;28;20025;-44
2022/05/08 05:11:53;;;;;;;12.88;3.38;;;8.50;78.70;;;;;;5036345;28;20099;-45
2022/05/08 05:14:20;;;;;;;19.65;3.58;;;8.60;78.10;;;;;;5054431;28;20033;-47
2022/05/08 05:16:46;;;;;;;13.68;2.50;;;8.60;78.00;;;;;;5032604;28;20033;-45
2022/05/08 05:19:13;;;;;;;11.80;3.45;;;8.50;78.00;;;;;;5055709;28;20029;-47
2022/05/08 05:21:38;;;;;;;12.43;2.63;;;8.60;78.30;;;;;;5050433;28;20087;-44
2022/05/08 05:24:05;;;;;;;12.88;2.85;;;8.60;77.90;;;;;;5035983;28;20038;-45
2022/05/08 05:26:32;;;;;;;12.50;2.65;;;8.60;78.40;;;;;;5049446;28;20037;-49
2022/05/08 05:29:02;;;;;;;16.63;2.60;;;8.60;78.40;;;;;;5037782;28;20338;-44
2022/05/08 05:31:29;;;;;;;18.08;3.72;;;8.60;78.30;;;;;;5052281;28;20029;-45
2022/05/08 05:33:55;;;;;;;14.88;3.22;;;8.50;78.20;;;;;;5034920;28;20097;-44
2022/05/08 05:36:22;;;;;;;25.27;5.97;;;8.60;78.20;;;;;;5034208;28;20029;-48
2022/05/08 05:38:49;;;;;;;14.52;3.42;;;9.00;77.70;;;;;;5034062;28;20025;-45
2022/05/08 05:41:18;;;;;;;17.20;5.53;;;9.20;76.80;;;;;;5035928;28;20049;-46
2022/05/08 05:43:44;;;;;;;10.20;2.45;;;9.10;75.90;;;;;;5035399;28;20037;-44
2022/05/08 05:48:56;;;;;;;14.30;2.83;;;9.40;75.80;;;;;;5050257;28;20148;-44
2022/05/08 05:51:26;;;;;;;9.82;3.50;;;9.70;74.80;;;;;;5037871;28;20024;-44
2022/05/08 05:53:54;;;;;;;11.98;2.95;;;9.90;74.70;;;;;;5029931;28;20046;-45
2022/05/08 05:56:20;;;;;;;21.38;4.00;;;10.10;74.60;;;;;;5013761;28;20030;-46
2022/05/08 05:58:47;;;;;;;11.48;3.45;;;10.20;72.30;;;;;;5013844;28;20017;-47
2022/05/08 06:01:15;;;;;;;15.73;3.30;;;10.20;73.00;;;;;;5017527;28;20432;-45
2022/05/08 06:03:40;;;;;;;11.30;2.15;;;10.40;72.60;;;;;;5015212;28;20084;-46
2022/05/08 06:06:07;;;;;;;11.40;2.88;;;10.30;71.90;;;;;;5013595;28;20037;-45
2022/05/08 06:08:32;;;;;;;13.70;3.22;;;10.30;72.40;;;;;;5013274;28;20112;-46
2022/05/08 06:10:59;;;;;;;15.93;4.05;;;10.30;72.20;;;;;;5013999;28;20655;-44
2022/05/08 06:13:26;;;;;;;11.52;2.53;;;10.30;72.20;;;;;;5013836;28;20478;-45
2022/05/08 06:15:53;;;;;;;14.73;2.70;;;10.30;71.20;;;;;;5012814;28;20129;-45
2022/05/08 06:18:22;;;;;;;15.60;2.95;;;10.00;70.90;;;;;;5012700;28;20025;-45
2022/05/08 06:20:49;;;;;;;15.85;3.63;;;9.90;70.90;;;;;;5014977;28;20046;-45
2022/05/08 06:23:16;;;;;;;12.63;2.47;;;10.00;71.90;;;;;;5014181;28;20034;-45
2022/05/08 06:25:42;;;;;;;12.52;2.30;;;10.20;72.20;;;;;;5012835;28;20045;-47
2022/05/08 06:28:10;;;;;;;18.75;4.13;;;10.30;71.50;;;;;;5013905;28;20033;-49
2022/05/08 06:30:36;;;;;;;13.98;2.67;;;10.40;71.20;;;;;;5012560;28;20029;-48
2022/05/08 06:33:03;;;;;;;16.17;3.45;;;10.40;70.90;;;;;;5045542;28;20171;-44
2022/05/08 06:35:30;;;;;;;10.27;3.95;;;10.30;70.30;;;;;;5014520;28;20534;-44
2022/05/08 06:37:56;;;;;;;13.00;4.38;;;10.30;70.60;;;;;;5012364;28;20765;-43
2022/05/08 06:40:23;;;;;;;15.88;3.08;;;10.30;70.90;;;;;;5013210;28;20347;-44
2022/05/08 06:42:50;;;;;;;14.13;3.28;;;10.40;70.70;;;;;;5012211;28;20037;-45
2022/05/08 06:45:18;;;;;;;13.82;3.20;;;10.50;70.80;;;;;;5012618;28;20036;-47
2022/05/08 06:47:44;;;;;;;13.57;3.10;;;10.60;70.50;;;;;;5011994;28;20044;-46
2022/05/08 06:50:11;;;;;;;13.15;3.60;;;10.70;70.10;;;;;;5013695;28;20109;-45
2022/05/08 06:52:41;;;;;;;13.07;2.83;;;10.60;70.40;;;;;;5013149;28;20025;-44
2022/05/08 06:55:08;;;;;;;18.30;3.30;;;10.60;69.70;;;;;;5030350;28;20087;-46
2022/05/08 06:57:37;;;;;;;13.68;3.53;;;10.40;70.30;;;;;;5033165;28;20435;-45
2022/05/08 07:02:56;;;;;;;11.10;3.17;;;10.30;70.50;;;;;;5031587;28;20103;-45
2022/05/08 07:05:23;;;;;;;12.80;2.67;;;10.40;71.50;;;;;;5028757;28;20094;-45
2022/05/08 07:07:49;;;;;;;16.58;2.65;;;10.70;70.90;;;;;;5032154;28;20493;-47
2022/05/08 07:10:16;;;;;;;18.23;4.07;;;10.70;69.90;;;;;;5032987;28;20048;-46
2022/05/08 07:12:46;;;;;;;11.45;2.80;;;10.80;69.70;;;;;;5032167;28;20033;-46
2022/05/08 07:15:13;;;;;;;18.48;3.85;;;10.80;69.70;;;;;;5032026;28;20439;-46
2022/05/08 07:17:42;;;;;;;13.15;3.55;;;10.80;69.40;;;;;;5023574;28;20034;-45
2022/05/08 07:20:09;;;;;;;12.33;2.70;;;10.70;69.30;;;;;;5031942;28;20335;-45
2022/05/08 07:22:37;;;;;;;11.80;3.50;;;10.60;69.80;;;;;;5033228;28;20037;-47
2022/05/08 07:25:04;;;;;;;16.58;3.70;;;10.80;70.20;;;;;;5044532;28;20028;-45
2022/05/08 07:27:32;;;;;;;12.02;3.85;;;11.00;68.80;;;;;;5013801;28;20117;-45
2022/05/08 07:29:59;;;;;;;16.25;2.65;;;11.20;67.60;;;;;;5036398;28;20945;-45
2022/05/08 07:32:26;;;;;;;19.58;3.53;;;11.10;67.90;;;;;;5032354;28;20030;-45
2022/05/08 07:37:40;;;;;;;18.00;4.63;;;11.70;66.80;;;;;;5029611;28;20107;-48
2022/05/08 07:40:08;;;;;;;11.23;2.22;;;11.60;65.60;;;;;;5029066;28;20033;-46
2022/05/08 07:42:34;;;;;;;11.02;3.30;;;11.50;66.30;;;;;;5031751;28;20061;-45
2022/05/08 07:45:01;;;;;;;17.33;3.03;;;11.60;66.70;;;;;;5031768;28;20033;-45
2022/05/08 07:47:28;;;;;;;10.10;2.47;;;12.30;66.00;;;;;;5031813;28;20036;-48
2022/05/08 07:49:54;;;;;;;11.88;3.22;;;13.20;63.60;;;;;;5034469;28;20029;-45
2022/05/08 07:52:23;;;;;;;9.57;3.03;;;13.40;61.60;;;;;;5031389;28;20350;-47
2022/05/08 07:54:50;;;;;;;10.13;3.08;;;13.10;62.00;;;;;;5046708;28;20470;-48
2022/05/08 07:57:17;;;;;;;11.70;3.22;;;12.80;62.60;;;;;;5040958;28;20371;-45
2022/05/08 07:59:43;;;;;;;17.27;4.43;;;12.40;62.90;;;;;;5036844;28;20361;-46
2022/05/08 08:02:10;;;;;;;10.38;3.75;;;12.10;63.70;;;;;;5036013;28;20074;-45
2022/05/08 08:04:36;;;;;;;11.65;2.63;;;12.10;65.80;;;;;;5033429;28;20037;-45
2022/05/08 08:07:03;;;;;;;12.73;3.28;;;12.50;64.90;;;;;;5035357;28;20367;-50
2022/05/08 08:09:30;;;;;;;13.55;3.28;;;12.30;64.20;;;;;;5031733;28;20062;-44
2022/05/08 08:11:57;;;;;;;16.17;3.22;;;12.90;64.20;;;;;;5037168;28;20530;-45
2022/05/08 08:14:23;;;;;;;9.43;4.07;;;13.60;60.00;;;;;;5054437;28;20037;-45
2022/05/08 08:16:50;;;;;;;9.85;3.30;;;14.40;59.10;;;;;;5020145;28;20041;-47
2022/05/08 08:19:16;;;;;;;17.42;3.30;;;14.20;57.90;;;;;;5036260;28;20163;-45
2022/05/08 08:21:43;;;;;;;11.70;2.97;;;14.00;58.70;;;;;;5018343;28;20120;-45
2022/05/08 08:24:09;;;;;;;11.00;2.60;;;14.40;58.50;;;;;;5036581;28;20164;-45
2022/05/08 08:26:40;;;;;;;10.60;2.28;;;14.90;56.70;;;;;;5036059;28;20022;-46
2022/05/08 08:29:07;;;;;;;21.23;4.43;;;15.30;55.80;;;;;;5052077;28;20060;-46
2022/05/08 08:31:37;;;;;;;12.00;3.13;;;15.20;55.10;;;;;;5035742;28;20057;-45
2022/05/08 08:34:04;;;;;;;17.50;3.40;;;15.00;56.40;;;;;;5052928;28;20040;-47
2022/05/08 08:36:31;;;;;;;8.98;2.80;;;14.00;57.50;;;;;;5038597;28;20055;-44
2022/05/08 08:38:57;;;;;;;14.73;3.38;;;13.30;58.60;;;;;;5050805;28;20071;-47
2022/05/08 08:41:27;;;;;;;13.48;3.65;;;13.50;59.50;;;;;;5034647;28;20489;-46
2022/05/08 08:49:25;;;;;;;12.50;2.75;;;15.20;54.80;;;;;;5033835;28;20113;-46
2022/05/08 08:51:52;;;;;;;9.05;3.13;;;15.60;53.60;;;;;;5041385;28;20454;-45
2022/05/08 08:54:24;;;;;;;12.93;3.08;;;15.90;53.50;;;;;;5046542;28;20056;-45
2022/05/08 08:56:51;;;;;;;12.25;3.08;;;16.40;52.90;;;;;;5053715;28;20040;-47
2022/05/08 08:59:21;;;;;;;10.15;3.22;;;16.50;52.20;;;;;;5048304;28;20021;-46
2022/05/08 09:01:50;;;;;;;13.13;3.47;;;16.60;50.90;;;;;;5048601;28;20017;-46
2022/05/08 09:04:18;;;;;;;8.68;2.97;;;15.10;52.00;;;;;;5044411;28;20052;-45
2022/05/08 09:06:46;;;;;;;12.05;3.00;;;14.90;54.30;;;;;;5054330;28;20106;-45
2022/05/08 09:09:24;;;;;;;13.23;3.33;;;15.30;54.00;;;;;;5053537;28;20029;-45
2022/05/08 09:11:53;;;;;;;12.52;2.97;;;15.60;53.10;;;;;;5071031;28;20033;-45
2022/05/08 09:14:40;;;;;;;11.38;2.78;;;15.80;51.80;;;;;;5051784;28;20028;-47
2022/05/08 09:17:07;;;;;;;10.90;3.42;;;15.40;52.20;;;;;;5026741;28;20065;-46
2022/05/08 09:19:51;;;;;;;13.32;2.70;;;15.60;52.80;;;;;;5044796;28;20584;-46
2022/05/08 09:22:18;;;;;;;10.50;3.25;;;15.90;52.80;;;;;;5035761;28;20461;-46
2022/05/08 09:24:53;;;;;;;10.50;3.03;;;15.90;53.00;;;;;;5053598;28;20517;-46
2022/05/08 09:27:20;;;;;;;13.40;3.50;;;16.20;53.10;;;;;;5050907;28;20041;-46
2022/05/08 09:29:47;;;;;;;9.88;3.70;;;16.30;52.80;;;;;;5039042;28;20122;-46
2022/05/08 09:32:42;;;;;;;8.55;2.58;;;16.20;52.80;;;;;;5048482;28;20163;-47
2022/05/08 09:35:08;;;;;;;11.93;3.05;;;15.70;51.30;;;;;;5013400;28;20038;-46
2022/05/08 09:37:56;;;;;;;15.13;3.15;;;15.70;53.40;;;;;;5035027;28;20013;-45
2022/05/08 09:40:24;;;;;;;11.80;2.83;;;15.80;52.20;;;;;;5049199;28;20102;-46
2022/05/08 09:42:50;;;;;;;11.18;2.92;;;15.90;50.80;;;;;;5049898;28;20796;-46
2022/05/08 09:45:17;;;;;;;9.32;3.03;;;15.80;53.00;;;;;;5038401;28;20044;-46
2022/05/08 09:47:47;;;;;;;12.32;3.83;;;16.00;53.10;;;;;;5053233;28;20081;-45
2022/05/08 09:50:16;;;;;;;12.00;3.03;;;15.40;52.90;;;;;;5053456;28;20066;-47
2022/05/08 09:52:44;;;;;;;11.80;3.15;;;14.90;56.60;;;;;;5051638;28;20434;-45
2022/05/08 09:55:15;;;;;;;13.73;2.92;;;14.90;55.20;;;;;;5052011;28;20187;-45
2022/05/08 09:57:42;;;;;;;13.57;3.22;;;15.40;54.20;;;;;;5052902;28;20036;-45
2022/05/08 10:00:10;;;;;;;9.98;2.72;;;15.50;52.20;;;;;;5046494;28;20465;-46
2022/05/08 10:02:39;;;;;;;10.20;3.45;;;15.80;52.30;;;;;;5064167;28;20044;-46
2022/05/08 10:05:07;;;;;;;;;;;15.90;51.10;;;;;;5040425;28;20385;-46
2022/05/08 10:07:36;;;;;;;10.63;2.50;;;15.90;52.30;;;;;;5037747;28;19949;-48
2022/05/08 10:15:43;;;;;;;14.07;4.05;;;16.00;52.70;;;;;;5052904;28;20358;-47
2022/05/08 10:18:27;;;;;;;10.60;2.78;;;16.10;51.20;;;;;;5034770;28;20017;-46
2022/05/08 10:21:12;;;;;;;12.65;2.95;;;16.10;51.00;;;;;;5052845;28;20063;-46
2022/05/08 10:23:57;;;;;;;13.75;4.00;;;16.00;54.40;;;;;;5050035;28;20021;-47
2022/05/08 10:26:24;;;;;;;14.00;3.13;;;16.10;51.50;;;;;;5033673;28;20465;-46
2022/05/08 10:29:09;;;;;;;10.23;2.38;;;16.00;51.30;;;;;;5050701;28;20128;-46
2022/05/08 10:31:50;;;;;;;17.67;3.67;;;16.20;50.20;;;;;;5068887;28;20029;-46
2022/05/08 10:34:33;;;;;;;14.02;3.72;;;15.90;53.80;;;;;;5050717;28;20400;-46
2022/05/08 10:37:16;;;;;;;8.45;3.15;;;16.00;51.20;;;;;;5051623;28;20036;-46
2022/05/08 10:39:47;;;;;;;13.85;3.78;;;15.70;51.60;;;;;;5049839;28;20450;-45
2022/05/08 10:42:28;;;;;;;11.98;3.05;;;15.50;51.70;;;;;;5051501;28;20362;-45
2022/05/08 10:44:56;;;;;;;10.63;2.75;;;15.80;52.80;;;;;;5043358;28;20044;-47
2022/05/08 10:47:37;;;;;;;10.05;3.20;;;15.90;56.90;;;;;;5032143;28;20037;-46
2022/05/08 10:50:07;;;;;;;9.35;2.80;;;16.10;51.60;;;;;;5031025;28;20036;-46
2022/05/08 10:52:37;;;;;;;13.68;2.85;;;16.20;51.90;;;;;;5015509;28;20033;-47
2022/05/08 10:55:09;;;;;;;9.35;3.17;;;16.40;52.20;;;;;;5024679;28;20046;-46
2022/05/08 10:57:37;;;;;;;13.95;3.63;;;16.20;51.60;;;;;;5022520;28;20051;-46
2022/05/08 11:00:06;;;;;;;12.70;2.83;;;15.90;52.40;;;;;;5002297;28;20057;-49
2022/05/08 11:02:52;;;;;;;10.27;2.78;;;15.90;55.40;;;;;;5013164;28;20447;-46
2022/05/08 11:05:27;;;;;;;10.50;3.58;;;15.80;51.60;;;;;;5010581;28;20659;-49
2022/05/08 11:08:13;;;;;;;11.95;3.42;;;15.40;51.10;;;;;;5008816;28;20052;-46
2022/05/08 11:10:42;;;;;;;10.15;3.28;;;15.40;54.80;;;;;;4993823;28;20038;-47
2022/05/08 11:13:36;;;;;;;14.37;3.87;;;15.60;53.90;;;;;;4993597;28;20026;-46
2022/05/08 11:16:03;;;;;;;15.63;3.47;;;15.60;54.10;;;;;;5014706;28;20030;-45
2022/05/08 11:18:30;;;;;;;15.50;4.40;;;15.40;54.80;;;;;;5025212;28;20036;-46
2022/05/08 11:21:14;;;;;;;10.32;3.08;;;15.50;55.90;;;;;;4996643;28;20042;-45
2022/05/08 11:23:47;;;;;;;12.65;3.90;;;15.90;54.90;;;;;;4995490;28;20474;-45
2022/05/08 11:26:14;;;;;;;13.35;3.50;;;15.30;54.50;;;;;;5026332;28;20022;-46
2022/05/08 11:28:50;;;;;;;8.85;3.00;;;15.20;55.60;;;;;;5032916;28;20037;-46
2022/05/08 11:31:20;;;;;;;10.48;3.28;;;15.00;56.30;;;;;;5012528;28;20213;-46
2022/05/08 11:36:41;;;;;;;14.23;3.33;;;15.40;55.40;;;;;;4993313;28;20053;-48
2022/05/08 11:39:25;;;;;;;11.60;3.45;;;15.30;53.80;;;;;;4993179;28;20027;-45
2022/05/08 11:41:54;;;;;;;10.48;3.65;;;15.30;56.30;;;;;;4992460;28;20018;-45
2022/05/08 11:44:38;;;;;;;13.27;3.40;;;15.10;54.70;;;;;;4995515;28;20137;-46
2022/05/08 11:47:10;;;;;;;18.70;2.92;;;15.20;55.70;;;;;;5012190;28;20440;-48
2022/05/08 11:49:40;;;;;;;11.80;3.15;;;14.90;54.50;;;;;;4995602;28;20034;-45
2022/05/08 11:52:19;;;;;;;8.15;3.05;;;15.00;57.10;;;;;;5008289;28;20034;-49
2022/05/08 11:54:59;;;;;;;14.32;4.28;;;14.90;56.60;;;;;;5006406;28;20137;-47
2022/05/08 11:57:25;;;;;;;12.45;2.88;;;14.70;56.50;;;;;;5012307;28;20026;-46
2022/05/08 12:00:11;;;;;;;12.75;4.13;;;14.90;55.80;;;;;;5012376;28;20061;-49
2022/05/08 12:02:41;;;;;;;11.77;3.10;;;14.90;57.50;;;;;;5015571;28;20589;-45
2022/05/08 12:05:29;;;;;;;12.45;2.50;;;14.90;56.40;;;;;;5012267;28;20084;-45
2022/05/08 12:07:56;;;;;;;11.15;3.13;;;14.80;55.10;;;;;;5012172;28;20058;-45
2022/05/08 12:10:36;;;;;;;11.73;2.75;;;14.90;57.60;;;;;;5011885;28;20030;-47
2022/05/08 12:13:06;;;;;;;16.67;3.72;;;14.90;55.30;;;;;;5012590;28;20489;-45
2022/05/08 12:15:34;;;;;;;11.88;3.38;;;14.70;54.60;;;;;;5011977;28;20046;-45
2022/05/08 12:18:04;;;;;;;13.40;3.10;;;14.70;56.30;;;;;;5012520;28;20367;-46
2022/05/08 12:20:34;;;;;;;7.70;2.92;;;14.60;56.70;;;;;;5011196;28;20030;-45
2022/05/08 12:23:10;;;;;;;14.38;3.17;;;14.60;55.90;;;;;;5011328;28;20033;-45
2022/05/08 12:25:46;;;;;;;17.08;4.32;;;14.50;57.30;;;;;;4996736;28;20049;-46
2022/05/08 12:28:20;;;;;;;11.73;2.85;;;14.70;54.80;;;;;;5005980;28;20058;-45
2022/05/08 12:30:47;;;;;;;8.07;2.60;;;14.60;54.20;;;;;;5005872;28;20030;-44
2022/05/08 12:33:14;;;;;;;11.73;3.65;;;14.90;55.40;;;;;;5010912;28;20144;-46
2022/05/08 12:35:44;;;;;;;9.60;2.53;;;14.60;56.90;;;;;;5012889;28;20101;-46
2022/05/08 12:38:11;;;;;;;14.43;4.15;;;14.50;56.00;;;;;;5012114;28;20022;-45
2022/05/08 12:40:41;;;;;;;8.25;2.30;;;14.40;55.90;;;;;;5011078;28;20048;-45
2022/05/08 12:43:09;;;;;;;11.35;2.42;;;14.30;57.50;;;;;;5012551;28;20033;-46
2022/05/08 12:45:39;;;;;;;9.00;2.78;;;14.40;58.10;;;;;;5011715;28;20080;-45
2022/05/08 12:48:07;;;;;;;13.38;3.15;;;14.30;58.10;;;;;;5011683;28;20026;-45
2022/05/08 12:50:34;;;;;;;10.65;2.72;;;14.40;57.50;;;;;;5013330;28;20038;-45
2022/05/08 12:53:03;;;;;;;12.05;2.67;;;14.30;58.60;;;;;;5015324;28;20053;-46
2022/05/08 12:55:34;;;;;;;13.05;3.42;;;14.20;58.00;;;;;;5053223;28;20110;-46
2022/05/08 13:00:53;;;;;;;8.40;2.70;;;14.40;57.30;;;;;;5046034;28;20123;-46
2022/05/08 13:03:20;;;;;;;12.55;3.25;;;13.90;57.50;;;;;;5054380;28;20053;-45
2022/05/08 13:05:49;;;;;;;13.43;3.92;;;14.00;57.50;;;;;;5054338;28;20485;-45
2022/05/08 13:08:16;;;;;;;14.43;3.28;;;13.90;59.50;;;;;;5053698;28;20518;-45
2022/05/08 13:10:43;;;;;;;12.00;3.20;;;13.90;59.50;;;;;;5053667;28;20025;-45
2022/05/08 13:13:13;;;;;;;16.45;4.63;;;14.00;57.50;;;;;;5055452;28;20082;-46
2022/05/08 13:15:40;;;;;;;13.32;3.80;;;13.90;57.50;;;;;;5053992;28;20029;-45
2022/05/08 13:18:06;;;;;;;10.50;3.42;;;14.00;59.60;;;;;;5055150;28;20112;-46
2022/05/08 13:20:33;;;;;;;14.70;3.63;;;13.90;58.30;;;;;;5052560;28;20104;-45
2022/05/08 13:22:58;;;;;;;9.10;2.72;;;13.60;58.50;;;;;;5052887;28;20032;-45
2022/05/08 13:25:25;;;;;;;11.80;3.65;;;13.80;60.10;;;;;;5023171;28;20025;-49
2022/05/08 13:27:51;;;;;;;12.45;3.20;;;13.80;60.40;;;;;;5033155;28;20032;-46
2022/05/08 13:30:21;;;;;;;11.65;3.58;;;13.80;59.20;;;;;;5054000;28;20143;-47
2022/05/08 13:32:47;;;;;;;9.15;2.85;;;13.90;57.80;;;;;;5051124;28;20029;-45